createdAt,value
2018-12-23T00:00:28.330Z,0.00
2018-12-23T00:01:28.251Z,0.00
2018-12-23T00:02:28.172Z,0.00
2018-12-23T00:03:28.093Z,0.00
2018-12-23T00:04:28.013Z,0.00
2018-12-23T00:05:27.935Z,0.00
2018-12-23T00:06:27.855Z,0.00
2018-12-23T00:07:27.777Z,0.00
2018-12-23T00:08:27.697Z,0.00
2018-12-23T00:09:27.619Z,0.00
2018-12-23T00:10:27.791Z,0.00
2018-12-23T00:11:27.462Z,0.00
2018-12-23T00:12:27.382Z,0.00
2018-12-23T00:13:27.304Z,0.00
2018-12-23T00:14:27.224Z,0.00
2018-12-23T00:15:27.145Z,0.00
2018-12-23T00:16:27.065Z,0.00
2018-12-23T00:17:26.988Z,0.00
2018-12-23T00:18:26.909Z,0.00
2018-12-23T00:19:26.829Z,0.00
2018-12-23T00:20:26.750Z,0.00
2018-12-23T00:21:26.673Z,0.00
2018-12-23T00:22:26.592Z,0.00
2018-12-23T00:23:26.513Z,0.00
2018-12-23T00:24:26.435Z,0.00
2018-12-23T00:25:26.355Z,0.00
2018-12-23T00:26:26.280Z,0.00
2018-12-23T00:27:26.198Z,0.00
2018-12-23T00:28:26.119Z,0.00
2018-12-23T00:29:26.038Z,0.00
2018-12-23T00:30:25.959Z,0.00
2018-12-23T00:31:25.884Z,0.00
2018-12-23T00:32:25.801Z,0.00
2018-12-23T00:33:25.724Z,0.00
2018-12-23T00:34:25.643Z,0.00
2018-12-23T00:35:25.567Z,0.00
2018-12-23T00:36:25.584Z,0.00
2018-12-23T00:37:25.406Z,0.00
2018-12-23T00:38:25.327Z,0.00
2018-12-23T00:39:25.265Z,0.00
2018-12-23T00:40:25.168Z,0.00
2018-12-23T00:41:25.090Z,0.00
2018-12-23T00:42:25.012Z,0.00
2018-12-23T00:43:24.932Z,0.00
2018-12-23T00:44:24.852Z,0.00
2018-12-23T00:45:24.775Z,0.00
2018-12-23T00:46:24.696Z,0.00
2018-12-23T00:47:24.616Z,0.00
2018-12-23T00:48:24.536Z,0.00
2018-12-23T00:49:24.459Z,0.00
2018-12-23T00:50:24.478Z,0.00
2018-12-23T00:51:24.300Z,0.00
2018-12-23T00:52:24.220Z,0.00
2018-12-23T00:53:24.141Z,0.00
2018-12-23T00:54:24.064Z,0.00
2018-12-23T00:55:23.986Z,0.00
2018-12-23T00:56:23.903Z,0.00
2018-12-23T00:57:23.825Z,0.00
2018-12-23T00:58:23.745Z,0.00
2018-12-23T00:59:23.667Z,0.00
2018-12-23T01:00:23.587Z,0.00
2018-12-23T01:01:23.508Z,0.00
2018-12-23T01:02:23.428Z,0.00
2018-12-23T01:03:23.351Z,0.00
2018-12-23T01:04:23.271Z,0.00
2018-12-23T01:05:28.760Z,0.00
2018-12-23T01:06:23.115Z,0.00
2018-12-23T01:07:23.033Z,0.00
2018-12-23T01:08:22.954Z,0.00
2018-12-23T01:09:22.874Z,0.00
2018-12-23T01:10:22.799Z,0.00
2018-12-23T01:11:22.967Z,0.00
2018-12-23T01:12:22.638Z,0.00
2018-12-23T01:13:22.559Z,0.00
2018-12-23T01:14:22.479Z,0.00
2018-12-23T01:15:22.400Z,0.00
2018-12-23T01:16:22.320Z,0.00
2018-12-23T01:17:22.241Z,0.00
2018-12-23T01:18:22.165Z,0.00
2018-12-23T01:19:22.083Z,0.00
2018-12-23T01:20:22.003Z,0.00
2018-12-23T01:21:21.927Z,0.00
2018-12-23T01:22:21.849Z,0.00
2018-12-23T01:23:21.766Z,0.00
2018-12-23T01:24:21.686Z,0.00
2018-12-23T01:25:21.607Z,0.00
2018-12-23T01:26:21.528Z,0.00
2018-12-23T01:27:21.449Z,0.00
2018-12-23T01:28:21.369Z,0.00
2018-12-23T01:29:21.290Z,0.00
2018-12-23T01:30:21.210Z,0.00
2018-12-23T01:31:21.133Z,0.00
2018-12-23T01:32:21.052Z,0.00
2018-12-23T01:33:20.981Z,0.00
2018-12-23T01:34:20.895Z,0.00
2018-12-23T01:35:20.816Z,0.00
2018-12-23T01:36:20.737Z,0.00
2018-12-23T01:37:20.658Z,0.00
2018-12-23T01:38:20.578Z,0.00
2018-12-23T01:39:20.499Z,0.00
2018-12-23T01:40:20.421Z,0.00
2018-12-23T01:41:20.340Z,0.00
2018-12-23T01:42:20.262Z,0.00
2018-12-23T01:43:20.183Z,0.00
2018-12-23T01:44:20.102Z,0.00
2018-12-23T01:45:20.024Z,0.00
2018-12-23T01:46:19.948Z,0.00
2018-12-23T01:47:19.868Z,0.00
2018-12-23T01:48:19.785Z,0.00
2018-12-23T01:49:19.707Z,0.00
2018-12-23T01:50:19.735Z,0.00
2018-12-23T01:51:19.548Z,0.00
2018-12-23T01:52:19.570Z,0.00
2018-12-23T01:53:19.390Z,0.00
2018-12-23T01:54:19.310Z,0.00
2018-12-23T01:55:19.231Z,0.00
2018-12-23T01:56:19.152Z,0.00
2018-12-23T01:57:19.071Z,0.00
2018-12-23T01:58:18.993Z,0.00
2018-12-23T01:59:18.914Z,0.00
2018-12-23T02:00:18.836Z,0.00
2018-12-23T02:01:18.754Z,0.00
2018-12-23T02:02:18.675Z,0.00
2018-12-23T02:03:18.597Z,0.00
2018-12-23T02:04:18.516Z,0.00
2018-12-23T02:05:18.437Z,0.00
2018-12-23T02:06:18.359Z,0.00
2018-12-23T02:07:18.280Z,0.00
2018-12-23T02:08:18.199Z,0.00
2018-12-23T02:09:18.120Z,0.00
2018-12-23T02:10:18.041Z,0.00
2018-12-23T02:11:17.962Z,0.00
2018-12-23T02:12:17.885Z,0.00
2018-12-23T02:13:17.803Z,0.00
2018-12-23T02:14:17.724Z,0.00
2018-12-23T02:15:17.644Z,0.00
2018-12-23T02:16:17.564Z,0.00
2018-12-23T02:17:17.485Z,0.00
2018-12-23T02:18:17.406Z,0.00
2018-12-23T02:19:17.329Z,0.00
2018-12-23T02:20:17.249Z,0.00
2018-12-23T02:21:17.170Z,0.00
2018-12-23T02:22:17.088Z,0.00
2018-12-23T02:23:17.011Z,0.00
2018-12-23T02:24:16.929Z,0.00
2018-12-23T02:25:16.849Z,0.00
2018-12-23T02:26:16.772Z,0.00
2018-12-23T02:27:16.692Z,0.00
2018-12-23T02:28:16.613Z,0.00
2018-12-23T02:29:16.537Z,0.00
2018-12-23T02:30:16.455Z,0.00
2018-12-23T02:31:16.376Z,0.00
2018-12-23T02:32:16.296Z,0.00
2018-12-23T02:33:16.215Z,0.00
2018-12-23T02:34:16.235Z,0.00
2018-12-23T02:35:16.057Z,0.00
2018-12-23T02:36:15.979Z,0.00
2018-12-23T02:37:15.897Z,0.00
2018-12-23T02:38:15.819Z,0.00
2018-12-23T02:39:15.741Z,0.00
2018-12-23T02:40:15.659Z,0.00
2018-12-23T02:41:15.580Z,0.00
2018-12-23T02:42:15.504Z,0.00
2018-12-23T02:43:15.421Z,0.00
2018-12-23T02:44:15.341Z,0.00
2018-12-23T02:45:15.263Z,0.00
2018-12-23T02:46:15.184Z,0.00
2018-12-23T02:47:15.106Z,0.00
2018-12-23T02:48:15.026Z,0.00
2018-12-23T02:49:14.947Z,0.00
2018-12-23T02:50:14.868Z,0.00
2018-12-23T02:51:14.789Z,0.00
2018-12-23T02:52:14.709Z,0.00
2018-12-23T02:53:14.629Z,0.00
2018-12-23T02:54:14.550Z,0.00
2018-12-23T02:55:14.471Z,0.00
2018-12-23T02:56:14.399Z,0.00
2018-12-23T02:57:14.312Z,0.00
2018-12-23T02:58:14.231Z,0.00
2018-12-23T02:59:14.152Z,0.00
2018-12-23T03:00:14.074Z,0.00
2018-12-23T03:01:13.993Z,0.00
2018-12-23T03:02:13.915Z,0.00
2018-12-23T03:03:13.838Z,0.00
2018-12-23T03:04:13.754Z,0.00
2018-12-23T03:05:13.674Z,0.00
2018-12-23T03:06:13.597Z,0.00
2018-12-23T03:07:13.534Z,0.00
2018-12-23T03:08:13.436Z,0.00
2018-12-23T03:09:13.357Z,0.00
2018-12-23T03:10:13.277Z,0.00
2018-12-23T03:11:13.197Z,0.00
2018-12-23T03:12:13.171Z,0.00
2018-12-23T03:13:13.039Z,0.00
2018-12-23T03:14:12.958Z,0.00
2018-12-23T03:15:12.878Z,0.00
2018-12-23T03:16:12.797Z,0.00
2018-12-23T03:17:12.724Z,0.00
2018-12-23T03:18:12.641Z,0.00
2018-12-23T03:19:12.562Z,0.00
2018-12-23T03:20:12.478Z,0.00
2018-12-23T03:21:12.399Z,0.00
2018-12-23T03:22:12.318Z,0.00
2018-12-23T03:23:12.245Z,0.00
2018-12-23T03:24:12.159Z,0.00
2018-12-23T03:25:12.081Z,0.00
2018-12-23T03:26:12.101Z,0.00
2018-12-23T03:27:11.920Z,0.00
2018-12-23T03:28:11.839Z,0.00
2018-12-23T03:29:11.760Z,0.00
2018-12-23T03:30:11.691Z,0.00
2018-12-23T03:31:11.603Z,0.00
2018-12-23T03:32:11.527Z,0.00
2018-12-23T03:33:11.441Z,0.00
2018-12-23T03:34:11.361Z,0.00
2018-12-23T03:35:11.282Z,0.00
2018-12-23T03:36:15.366Z,0.00
2018-12-23T03:37:11.120Z,0.00
2018-12-23T03:38:11.041Z,0.00
2018-12-23T03:39:10.961Z,0.00
2018-12-23T03:40:10.881Z,0.00
2018-12-23T03:41:10.800Z,0.00
2018-12-23T03:42:10.721Z,0.00
2018-12-23T03:43:10.891Z,0.00
2018-12-23T03:44:10.561Z,0.00
2018-12-23T03:45:10.479Z,0.00
2018-12-23T03:46:10.401Z,0.00
2018-12-23T03:47:10.321Z,0.00
2018-12-23T03:48:10.241Z,0.00
2018-12-23T03:49:10.161Z,0.00
2018-12-23T03:50:10.084Z,0.00
2018-12-23T03:51:10.002Z,0.00
2018-12-23T03:52:09.922Z,0.00
2018-12-23T03:53:09.840Z,0.00
2018-12-23T03:54:09.765Z,0.00
2018-12-23T03:55:09.681Z,0.00
2018-12-23T03:56:09.601Z,0.00
2018-12-23T03:57:09.521Z,0.00
2018-12-23T03:58:09.441Z,0.00
2018-12-23T03:59:09.363Z,0.00
2018-12-23T04:00:09.281Z,0.00
2018-12-23T04:01:09.201Z,0.00
2018-12-23T04:02:09.122Z,0.00
2018-12-23T04:03:09.043Z,0.00
2018-12-23T04:04:08.964Z,0.00
2018-12-23T04:05:08.882Z,0.00
2018-12-23T04:06:08.803Z,0.00
2018-12-23T04:07:08.722Z,0.00
2018-12-23T04:08:08.646Z,0.00
2018-12-23T04:09:08.567Z,0.00
2018-12-23T04:10:08.484Z,0.00
2018-12-23T04:11:08.404Z,0.00
2018-12-23T04:12:08.324Z,0.00
2018-12-23T04:13:08.243Z,0.00
2018-12-23T04:14:08.166Z,0.00
2018-12-23T04:15:08.085Z,0.00
2018-12-23T04:16:08.005Z,0.00
2018-12-23T04:17:07.925Z,0.00
2018-12-23T04:18:07.846Z,0.00
2018-12-23T04:19:07.766Z,0.00
2018-12-23T04:20:07.684Z,0.00
2018-12-23T04:21:07.607Z,0.00
2018-12-23T04:22:07.528Z,0.00
2018-12-23T04:23:07.446Z,0.00
2018-12-23T04:24:07.365Z,0.00
2018-12-23T04:25:07.289Z,0.00
2018-12-23T04:26:07.258Z,0.00
2018-12-23T04:27:07.127Z,0.00
2018-12-23T04:28:07.048Z,0.00
2018-12-23T04:29:06.969Z,0.00
2018-12-23T04:30:06.889Z,0.00
2018-12-23T04:31:06.812Z,0.00
2018-12-23T04:32:06.729Z,0.00
2018-12-23T04:33:06.650Z,0.00
2018-12-23T04:34:06.570Z,0.00
2018-12-23T04:35:06.491Z,0.00
2018-12-23T04:36:06.436Z,0.00
2018-12-23T04:37:06.331Z,0.00
2018-12-23T04:38:06.252Z,0.00
2018-12-23T04:39:06.173Z,0.00
2018-12-23T04:40:06.093Z,0.00
2018-12-23T04:41:06.012Z,0.00
2018-12-23T04:42:05.934Z,0.00
2018-12-23T04:43:05.855Z,0.00
2018-12-23T04:44:05.774Z,0.00
2018-12-23T04:45:05.697Z,0.00
2018-12-23T04:46:05.665Z,0.00
2018-12-23T04:47:05.541Z,0.00
2018-12-23T04:48:05.456Z,0.00
2018-12-23T04:49:05.377Z,0.00
2018-12-23T04:50:05.295Z,0.00
2018-12-23T04:51:05.467Z,0.00
2018-12-23T04:52:05.137Z,0.00
2018-12-23T04:53:05.059Z,0.00
2018-12-23T04:54:04.981Z,0.00
2018-12-23T04:55:04.899Z,0.00
2018-12-23T04:56:04.819Z,0.00
2018-12-23T04:57:04.739Z,0.00
2018-12-23T04:58:04.662Z,0.00
2018-12-23T04:59:04.582Z,0.00
2018-12-23T05:00:04.501Z,0.00
2018-12-23T05:01:04.421Z,0.00
2018-12-23T05:02:04.343Z,0.00
2018-12-23T05:03:04.263Z,0.00
2018-12-23T05:04:04.183Z,0.00
2018-12-23T05:05:04.107Z,0.00
2018-12-23T05:06:04.025Z,0.00
2018-12-23T05:07:03.945Z,0.00
2018-12-23T05:08:03.865Z,0.00
2018-12-23T05:09:03.786Z,0.00
2018-12-23T05:10:03.710Z,0.00
2018-12-23T05:11:03.632Z,0.00
2018-12-23T05:12:03.548Z,0.00
2018-12-23T05:13:03.468Z,0.00
2018-12-23T05:14:03.392Z,0.00
2018-12-23T05:15:03.310Z,0.00
2018-12-23T05:16:03.230Z,0.00
2018-12-23T05:17:03.152Z,0.00
2018-12-23T05:18:03.077Z,0.00
2018-12-23T05:19:02.994Z,0.00
2018-12-23T05:20:02.912Z,0.00
2018-12-23T05:21:02.835Z,0.00
2018-12-23T05:22:02.801Z,0.00
2018-12-23T05:23:02.776Z,0.00
2018-12-23T05:24:02.594Z,0.00
2018-12-23T05:25:02.517Z,0.00
2018-12-23T05:26:02.435Z,0.00
2018-12-23T05:27:02.356Z,0.00
2018-12-23T05:28:02.275Z,0.00
2018-12-23T05:29:02.201Z,0.00
2018-12-23T05:30:02.136Z,0.00
2018-12-23T05:31:02.146Z,0.00
2018-12-23T05:32:01.958Z,0.00
2018-12-23T05:33:01.878Z,0.00
2018-12-23T05:34:01.800Z,0.00
2018-12-23T05:35:01.724Z,0.00
2018-12-23T05:36:01.640Z,0.00
2018-12-23T05:37:01.562Z,0.00
2018-12-23T05:38:01.481Z,0.00
2018-12-23T05:39:01.404Z,0.00
2018-12-23T05:40:01.326Z,0.00
2018-12-23T05:41:01.243Z,0.00
2018-12-23T05:42:01.163Z,0.00
2018-12-23T05:43:01.085Z,0.00
2018-12-23T05:44:01.005Z,0.00
2018-12-23T05:45:00.925Z,0.00
2018-12-23T05:46:00.850Z,0.00
2018-12-23T05:47:00.878Z,0.00
2018-12-23T05:48:00.687Z,0.00
2018-12-23T05:49:00.606Z,0.00
2018-12-23T05:50:00.527Z,0.00
2018-12-23T05:51:00.449Z,0.00
2018-12-23T05:52:00.367Z,0.00
2018-12-23T05:53:00.541Z,0.00
2018-12-23T05:54:00.211Z,0.00
2018-12-23T05:55:00.185Z,0.00
2018-12-23T05:56:00.051Z,0.00
2018-12-23T05:56:59.970Z,0.00
2018-12-23T05:57:59.893Z,0.00
2018-12-23T05:58:59.815Z,0.00
2018-12-23T05:59:59.733Z,0.00
2018-12-23T06:00:59.653Z,0.00
2018-12-23T06:01:59.574Z,0.00
2018-12-23T06:02:59.596Z,0.00
2018-12-23T06:03:59.414Z,0.00
2018-12-23T06:04:59.336Z,0.00
2018-12-23T06:05:59.255Z,0.00
2018-12-23T06:07:01.017Z,0.00
2018-12-23T06:07:59.098Z,0.00
2018-12-23T06:08:59.018Z,0.00
2018-12-23T06:09:58.939Z,0.00
2018-12-23T06:10:58.859Z,0.00
2018-12-23T06:11:58.778Z,0.00
2018-12-23T06:12:58.700Z,0.00
2018-12-23T06:13:58.626Z,0.00
2018-12-23T06:14:58.541Z,0.00
2018-12-23T06:15:58.462Z,0.00
2018-12-23T06:16:58.384Z,0.00
2018-12-23T06:17:58.303Z,0.00
2018-12-23T06:18:58.224Z,0.00
2018-12-23T06:19:58.144Z,0.00
2018-12-23T06:20:58.066Z,0.00
2018-12-23T06:21:57.985Z,0.00
2018-12-23T06:22:57.908Z,0.00
2018-12-23T06:23:58.075Z,0.00
2018-12-23T06:24:57.747Z,0.00
2018-12-23T06:25:57.668Z,0.00
2018-12-23T06:26:57.593Z,0.00
2018-12-23T06:27:57.509Z,0.00
2018-12-23T06:28:57.428Z,0.00
2018-12-23T06:29:57.350Z,0.00
2018-12-23T06:30:57.271Z,0.00
2018-12-23T06:31:57.189Z,0.00
2018-12-23T06:32:57.117Z,0.00
2018-12-23T06:33:57.033Z,0.00
2018-12-23T06:34:56.952Z,0.00
2018-12-23T06:35:56.878Z,0.00
2018-12-23T06:36:56.793Z,0.00
2018-12-23T06:37:56.714Z,0.00
2018-12-23T06:38:56.634Z,0.00
2018-12-23T06:39:56.555Z,0.00
2018-12-23T06:40:56.489Z,0.00
2018-12-23T06:41:56.397Z,0.00
2018-12-23T06:42:56.318Z,0.00
2018-12-23T06:43:56.238Z,0.00
2018-12-23T06:44:56.159Z,0.00
2018-12-23T06:45:56.080Z,0.00
2018-12-23T06:46:56.001Z,0.00
2018-12-23T06:47:55.922Z,0.00
2018-12-23T06:48:55.842Z,0.00
2018-12-23T06:49:55.762Z,0.00
2018-12-23T06:50:55.685Z,0.00
2018-12-23T06:51:55.605Z,0.00
2018-12-23T06:52:55.527Z,0.00
2018-12-23T06:53:55.447Z,0.00
2018-12-23T06:54:55.366Z,0.00
2018-12-23T06:55:55.287Z,0.00
2018-12-23T06:56:55.231Z,0.00
2018-12-23T06:57:55.130Z,0.00
2018-12-23T06:58:55.050Z,0.00
2018-12-23T06:59:55.008Z,0.00
2018-12-23T07:00:54.892Z,0.00
2018-12-23T07:01:54.812Z,0.00
2018-12-23T07:02:54.735Z,0.00
2018-12-23T07:03:54.657Z,0.00
2018-12-23T07:04:54.574Z,0.00
2018-12-23T07:05:54.496Z,0.00
2018-12-23T07:06:54.416Z,0.00
2018-12-23T07:07:54.336Z,0.00
2018-12-23T07:08:54.255Z,0.00
2018-12-23T07:09:54.177Z,0.00
2018-12-23T07:10:54.099Z,0.00
2018-12-23T07:11:54.019Z,0.00
2018-12-23T07:12:53.939Z,0.00
2018-12-23T07:13:53.860Z,0.00
2018-12-23T07:14:53.785Z,0.00
2018-12-23T07:15:53.750Z,0.00
2018-12-23T07:16:53.623Z,0.00
2018-12-23T07:17:53.546Z,0.00
2018-12-23T07:18:53.465Z,0.00
2018-12-23T07:19:53.384Z,0.00
2018-12-23T07:20:55.267Z,0.00
2018-12-23T07:21:53.226Z,0.00
2018-12-23T07:22:53.147Z,0.00
2018-12-23T07:23:53.068Z,0.00
2018-12-23T07:24:53.238Z,0.00
2018-12-23T07:25:52.909Z,0.00
2018-12-23T07:26:52.831Z,0.00
2018-12-23T07:27:52.805Z,0.00
2018-12-23T07:28:52.671Z,0.00
2018-12-23T07:29:52.593Z,5.63
2018-12-23T07:30:52.513Z,5.63
2018-12-23T07:31:52.433Z,5.63
2018-12-23T07:32:52.354Z,5.63
2018-12-23T07:33:52.276Z,5.63
2018-12-23T07:34:52.195Z,5.63
2018-12-23T07:35:52.115Z,5.63
2018-12-23T07:36:52.038Z,5.63
2018-12-23T07:37:51.960Z,5.63
2018-12-23T07:38:51.879Z,5.63
2018-12-23T07:39:51.801Z,5.63
2018-12-23T07:40:51.721Z,5.63
2018-12-23T07:41:51.642Z,11.25
2018-12-23T07:42:51.561Z,11.25
2018-12-23T07:43:51.482Z,11.25
2018-12-23T07:44:51.406Z,16.88
2018-12-23T07:45:51.324Z,16.88
2018-12-23T07:46:51.247Z,16.88
2018-12-23T07:47:51.164Z,16.88
2018-12-23T07:48:51.086Z,11.25
2018-12-23T07:49:51.005Z,11.25
2018-12-23T07:50:50.927Z,11.25
2018-12-23T07:51:50.847Z,11.25
2018-12-23T07:52:50.768Z,16.88
2018-12-23T07:53:50.688Z,16.88
2018-12-23T07:54:50.610Z,16.88
2018-12-23T07:55:50.529Z,16.88
2018-12-23T07:56:50.450Z,16.88
2018-12-23T07:57:50.371Z,16.88
2018-12-23T07:58:50.292Z,16.88
2018-12-23T07:59:50.211Z,22.50
2018-12-23T08:00:50.133Z,22.50
2018-12-23T08:01:50.154Z,22.50
2018-12-23T08:02:49.975Z,22.50
2018-12-23T08:03:49.895Z,28.13
2018-12-23T08:04:49.815Z,22.50
2018-12-23T08:05:49.735Z,28.13
2018-12-23T08:06:49.658Z,28.13
2018-12-23T08:07:49.577Z,33.75
2018-12-23T08:08:49.499Z,33.75
2018-12-23T08:09:49.420Z,33.75
2018-12-23T08:10:49.341Z,33.75
2018-12-23T08:11:49.260Z,33.75
2018-12-23T08:12:49.181Z,33.75
2018-12-23T08:13:49.103Z,33.75
2018-12-23T08:14:49.025Z,39.38
2018-12-23T08:15:48.945Z,45.00
2018-12-23T08:16:48.865Z,45.00
2018-12-23T08:17:48.786Z,39.38
2018-12-23T08:18:48.708Z,33.75
2018-12-23T08:19:48.628Z,33.75
2018-12-23T08:20:48.549Z,33.75
2018-12-23T08:21:48.470Z,39.38
2018-12-23T08:22:48.391Z,39.38
2018-12-23T08:23:48.312Z,45.00
2018-12-23T08:24:48.235Z,45.00
2018-12-23T08:25:48.155Z,50.63
2018-12-23T08:26:48.075Z,50.63
2018-12-23T08:27:47.996Z,50.63
2018-12-23T08:28:47.919Z,50.63
2018-12-23T08:29:47.841Z,56.25
2018-12-23T08:30:47.759Z,56.25
2018-12-23T08:31:48.746Z,56.25
2018-12-23T08:32:47.600Z,56.25
2018-12-23T08:33:47.523Z,56.25
2018-12-23T08:34:47.444Z,56.25
2018-12-23T08:35:47.363Z,56.25
2018-12-23T08:36:47.285Z,56.25
2018-12-23T08:37:47.206Z,56.25
2018-12-23T08:38:47.128Z,56.25
2018-12-23T08:39:47.048Z,56.25
2018-12-23T08:40:46.970Z,56.25
2018-12-23T08:41:46.891Z,61.88
2018-12-23T08:42:46.812Z,61.88
2018-12-23T08:43:46.731Z,61.88
2018-12-23T08:44:46.655Z,61.88
2018-12-23T08:45:46.581Z,67.50
2018-12-23T08:46:46.496Z,67.50
2018-12-23T08:47:46.417Z,73.13
2018-12-23T08:48:46.338Z,73.13
2018-12-23T08:49:46.259Z,78.75
2018-12-23T08:50:46.180Z,73.13
2018-12-23T08:51:46.101Z,73.13
2018-12-23T08:52:46.023Z,67.50
2018-12-23T08:53:45.944Z,78.75
2018-12-23T08:54:45.866Z,61.88
2018-12-23T08:55:45.786Z,73.13
2018-12-23T08:56:45.706Z,61.88
2018-12-23T08:57:45.628Z,56.25
2018-12-23T08:58:45.551Z,61.88
2018-12-23T08:59:45.472Z,67.50
2018-12-23T09:00:45.394Z,78.75
2018-12-23T09:01:45.323Z,73.13
2018-12-23T09:02:45.234Z,84.38
2018-12-23T09:03:45.158Z,84.38
2018-12-23T09:04:45.080Z,84.38
2018-12-23T09:05:44.998Z,78.75
2018-12-23T09:06:44.920Z,84.38
2018-12-23T09:07:52.840Z,84.38
2018-12-23T09:08:44.763Z,90.00
2018-12-23T09:09:44.686Z,95.63
2018-12-23T09:10:44.606Z,101.25
2018-12-23T09:11:44.527Z,112.50
2018-12-23T09:12:44.448Z,106.88
2018-12-23T09:13:44.369Z,95.63
2018-12-23T09:14:44.294Z,112.50
2018-12-23T09:15:44.215Z,129.38
2018-12-23T09:16:44.134Z,135.00
2018-12-23T09:17:44.056Z,140.63
2018-12-23T09:18:43.977Z,135.00
2018-12-23T09:19:43.901Z,146.25
2018-12-23T09:20:43.819Z,140.63
2018-12-23T09:21:43.743Z,135.00
2018-12-23T09:22:43.667Z,140.63
2018-12-23T09:23:43.583Z,140.63
2018-12-23T09:24:43.507Z,140.63
2018-12-23T09:25:43.428Z,135.00
2018-12-23T09:26:43.350Z,140.63
2018-12-23T09:27:43.270Z,135.00
2018-12-23T09:28:43.192Z,135.00
2018-12-23T09:29:43.114Z,129.38
2018-12-23T09:30:43.041Z,135.00
2018-12-23T09:31:42.956Z,140.63
2018-12-23T09:32:42.878Z,140.63
2018-12-23T09:33:42.800Z,140.63
2018-12-23T09:34:42.823Z,140.63
2018-12-23T09:35:42.642Z,140.63
2018-12-23T09:36:42.565Z,135.00
2018-12-23T09:37:42.487Z,135.00
2018-12-23T09:38:42.409Z,146.25
2018-12-23T09:39:42.329Z,151.88
2018-12-23T09:40:42.251Z,151.88
2018-12-23T09:41:42.173Z,151.88
2018-12-23T09:42:42.096Z,151.88
2018-12-23T09:43:42.015Z,151.88
2018-12-23T09:44:41.937Z,151.88
2018-12-23T09:45:41.859Z,157.50
2018-12-23T09:46:41.781Z,163.13
2018-12-23T09:47:41.701Z,151.88
2018-12-23T09:48:41.624Z,151.88
2018-12-23T09:49:41.546Z,151.88
2018-12-23T09:50:41.468Z,163.13
2018-12-23T09:51:41.388Z,174.38
2018-12-23T09:52:41.316Z,174.38
2018-12-23T09:53:41.232Z,174.38
2018-12-23T09:54:41.154Z,168.75
2018-12-23T09:55:41.075Z,135.00
2018-12-23T09:56:40.997Z,151.88
2018-12-23T09:57:40.919Z,168.75
2018-12-23T09:58:40.846Z,163.13
2018-12-23T09:59:40.761Z,168.75
2018-12-23T10:00:40.684Z,174.38
2018-12-23T10:01:40.607Z,168.75
2018-12-23T10:02:40.529Z,174.38
2018-12-23T10:03:40.451Z,174.38
2018-12-23T10:04:40.372Z,180.00
2018-12-23T10:05:40.297Z,174.38
2018-12-23T10:06:40.216Z,168.75
2018-12-23T10:07:40.138Z,157.50
2018-12-23T10:08:40.060Z,180.00
2018-12-23T10:09:39.982Z,185.63
2018-12-23T10:10:39.904Z,191.25
2018-12-23T10:11:39.824Z,191.25
2018-12-23T10:12:39.749Z,202.50
2018-12-23T10:13:39.669Z,191.25
2018-12-23T10:14:39.594Z,174.38
2018-12-23T10:15:39.513Z,151.88
2018-12-23T10:16:39.435Z,129.38
2018-12-23T10:17:39.356Z,95.63
2018-12-23T10:18:39.279Z,95.63
2018-12-23T10:19:39.200Z,95.63
2018-12-23T10:20:39.233Z,84.38
2018-12-23T10:21:39.046Z,118.13
2018-12-23T10:22:38.966Z,118.13
2018-12-23T10:23:38.887Z,146.25
2018-12-23T10:24:38.809Z,157.50
2018-12-23T10:25:38.731Z,163.13
2018-12-23T10:26:38.651Z,157.50
2018-12-23T10:27:38.574Z,151.88
2018-12-23T10:28:38.496Z,157.50
2018-12-23T10:29:38.417Z,146.25
2018-12-23T10:30:38.342Z,140.63
2018-12-23T10:31:38.268Z,146.25
2018-12-23T10:32:38.183Z,151.88
2018-12-23T10:33:38.105Z,151.88
2018-12-23T10:34:38.027Z,151.88
2018-12-23T10:35:37.948Z,146.25
2018-12-23T10:36:37.870Z,140.63
2018-12-23T10:37:37.791Z,146.25
2018-12-23T10:38:37.713Z,140.63
2018-12-23T10:39:37.637Z,129.38
2018-12-23T10:40:37.557Z,140.63
2018-12-23T10:41:37.478Z,140.63
2018-12-23T10:42:37.399Z,146.25
2018-12-23T10:43:37.320Z,151.88
2018-12-23T10:44:37.243Z,151.88
2018-12-23T10:45:37.165Z,157.50
2018-12-23T10:46:37.089Z,163.13
2018-12-23T10:47:37.008Z,163.13
2018-12-23T10:48:36.931Z,163.13
2018-12-23T10:49:36.854Z,151.88
2018-12-23T10:50:36.775Z,146.25
2018-12-23T10:51:36.697Z,151.88
2018-12-23T10:52:36.618Z,146.25
2018-12-23T10:53:36.541Z,151.88
2018-12-23T10:54:36.463Z,151.88
2018-12-23T10:55:36.383Z,146.25
2018-12-23T10:56:36.306Z,180.00
2018-12-23T10:57:36.228Z,185.63
2018-12-23T10:58:36.149Z,185.63
2018-12-23T10:59:36.071Z,185.63
2018-12-23T11:00:35.994Z,174.38
2018-12-23T11:01:35.915Z,163.13
2018-12-23T11:02:35.887Z,135.00
2018-12-23T11:03:35.770Z,118.13
2018-12-23T11:04:35.680Z,112.50
2018-12-23T11:05:35.603Z,140.63
2018-12-23T11:06:35.525Z,140.63
2018-12-23T11:07:35.447Z,135.00
2018-12-23T11:08:35.368Z,157.50
2018-12-23T11:09:35.290Z,151.88
2018-12-23T11:10:35.211Z,185.63
2018-12-23T11:11:35.134Z,185.63
2018-12-23T11:12:35.055Z,163.13
2018-12-23T11:13:34.977Z,151.88
2018-12-23T11:14:34.901Z,185.63
2018-12-23T11:15:34.821Z,196.88
2018-12-23T11:16:34.743Z,196.88
2018-12-23T11:17:34.664Z,202.50
2018-12-23T11:18:34.587Z,196.88
2018-12-23T11:19:34.509Z,202.50
2018-12-23T11:20:34.431Z,202.50
2018-12-23T11:21:34.352Z,202.50
2018-12-23T11:22:34.276Z,202.50
2018-12-23T11:23:34.196Z,202.50
2018-12-23T11:24:34.117Z,202.50
2018-12-23T11:25:34.040Z,196.88
2018-12-23T11:26:33.961Z,196.88
2018-12-23T11:27:33.885Z,196.88
2018-12-23T11:28:33.806Z,196.88
2018-12-23T11:29:33.728Z,191.25
2018-12-23T11:30:33.649Z,191.25
2018-12-23T11:31:33.571Z,191.25
2018-12-23T11:32:33.492Z,185.63
2018-12-23T11:33:33.415Z,191.25
2018-12-23T11:34:33.338Z,196.88
2018-12-23T11:35:33.261Z,202.50
2018-12-23T11:36:33.181Z,202.50
2018-12-23T11:37:33.108Z,196.88
2018-12-23T11:38:35.624Z,196.88
2018-12-23T11:39:32.997Z,196.88
2018-12-23T11:40:32.870Z,191.25
2018-12-23T11:41:32.793Z,185.63
2018-12-23T11:42:32.714Z,180.00
2018-12-23T11:43:32.636Z,180.00
2018-12-23T11:44:32.562Z,180.00
2018-12-23T11:45:32.482Z,180.00
2018-12-23T11:46:32.407Z,180.00
2018-12-23T11:47:32.324Z,185.63
2018-12-23T11:48:32.247Z,168.75
2018-12-23T11:49:32.172Z,168.75
2018-12-23T11:50:32.094Z,163.13
2018-12-23T11:51:32.013Z,157.50
2018-12-23T11:52:31.935Z,151.88
2018-12-23T11:53:31.857Z,146.25
2018-12-23T11:54:31.786Z,146.25
2018-12-23T11:55:31.739Z,146.25
2018-12-23T11:56:31.625Z,129.38
2018-12-23T11:57:31.547Z,135.00
2018-12-23T11:58:31.469Z,146.25
2018-12-23T11:59:31.389Z,151.88
2018-12-23T12:00:31.312Z,157.50
2018-12-23T12:01:31.235Z,157.50
2018-12-23T12:02:31.158Z,140.63
2018-12-23T12:03:31.079Z,129.38
2018-12-23T12:04:31.001Z,123.75
2018-12-23T12:05:30.923Z,135.00
2018-12-23T12:06:30.845Z,140.63
2018-12-23T12:07:30.767Z,140.63
2018-12-23T12:08:30.783Z,135.00
2018-12-23T12:09:30.611Z,129.38
2018-12-23T12:10:30.533Z,118.13
2018-12-23T12:11:30.556Z,101.25
2018-12-23T12:12:30.377Z,95.63
2018-12-23T12:13:30.299Z,95.63
2018-12-23T12:14:30.222Z,90.00
2018-12-23T12:15:30.143Z,101.25
2018-12-23T12:16:30.068Z,95.63
2018-12-23T12:17:29.992Z,95.63
2018-12-23T12:18:29.909Z,95.63
2018-12-23T12:19:29.834Z,106.88
2018-12-23T12:20:29.752Z,129.38
2018-12-23T12:21:29.674Z,140.63
2018-12-23T12:22:29.597Z,140.63
2018-12-23T12:23:29.518Z,140.63
2018-12-23T12:24:29.439Z,135.00
2018-12-23T12:25:29.362Z,129.38
2018-12-23T12:26:29.285Z,118.13
2018-12-23T12:27:29.204Z,112.50
2018-12-23T12:28:29.128Z,112.50
2018-12-23T12:29:29.052Z,106.88
2018-12-23T12:30:28.971Z,101.25
2018-12-23T12:31:28.892Z,101.25
2018-12-23T12:32:28.821Z,106.88
2018-12-23T12:33:28.740Z,106.88
2018-12-23T12:34:28.662Z,101.25
2018-12-23T12:35:28.580Z,101.25
2018-12-23T12:36:28.504Z,95.63
2018-12-23T12:37:28.426Z,84.38
2018-12-23T12:38:28.347Z,90.00
2018-12-23T12:39:28.267Z,84.38
2018-12-23T12:40:28.190Z,67.50
2018-12-23T12:41:28.115Z,84.38
2018-12-23T12:42:28.034Z,84.38
2018-12-23T12:43:27.955Z,90.00
2018-12-23T12:44:27.877Z,101.25
2018-12-23T12:45:27.852Z,101.25
2018-12-23T12:46:27.822Z,90.00
2018-12-23T12:47:27.643Z,90.00
2018-12-23T12:48:27.565Z,95.63
2018-12-23T12:49:27.487Z,90.00
2018-12-23T12:50:27.409Z,84.38
2018-12-23T12:51:27.330Z,67.50
2018-12-23T12:52:27.253Z,56.25
2018-12-23T12:53:27.174Z,50.63
2018-12-23T12:54:27.095Z,39.38
2018-12-23T12:55:27.017Z,28.13
2018-12-23T12:56:26.941Z,22.50
2018-12-23T12:57:26.861Z,28.13
2018-12-23T12:58:26.783Z,22.50
2018-12-23T12:59:26.705Z,28.13
2018-12-23T13:00:26.626Z,33.75